sensor_id;sensor_type;location;lat;lon;timestamp;temperature;humidity
44431;DHT22;30135;47.866;-4.222;2023-01-25T00:00:07;6.80;91.80
44431;DHT22;30135;47.866;-4.222;2023-01-25T00:02:38;6.90;91.80
44431;DHT22;30135;47.866;-4.222;2023-01-25T00:05:10;6.80;91.80
44431;DHT22;30135;47.866;-4.222;2023-01-25T00:07:40;6.90;91.90
44431;DHT22;30135;47.866;-4.222;2023-01-25T00:10:23;6.90;91.80
44431;DHT22;30135;47.866;-4.222;2023-01-25T00:12:54;6.90;91.80
44431;DHT22;30135;47.866;-4.222;2023-01-25T00:15:24;6.90;91.80
44431;DHT22;30135;47.866;-4.222;2023-01-25T00:17:55;6.90;91.90
44431;DHT22;30135;47.866;-4.222;2023-01-25T00:20:36;6.90;91.90
44431;DHT22;30135;47.866;-4.222;2023-01-25T00:23:04;6.90;91.90
44431;DHT22;30135;47.866;-4.222;2023-01-25T00:25:32;6.90;91.90
44431;DHT22;30135;47.866;-4.222;2023-01-25T00:28:06;6.90;91.90
44431;DHT22;30135;47.866;-4.222;2023-01-25T00:30:37;6.90;91.90
44431;DHT22;30135;47.866;-4.222;2023-01-25T00:35:44;6.90;91.90
44431;DHT22;30135;47.866;-4.222;2023-01-25T00:38:30;6.90;91.90
44431;DHT22;30135;47.866;-4.222;2023-01-25T00:41:15;7.00;91.90
44431;DHT22;30135;47.866;-4.222;2023-01-25T00:43:45;6.90;91.90
44431;DHT22;30135;47.866;-4.222;2023-01-25T00:46:15;6.90;91.90
44431;DHT22;30135;47.866;-4.222;2023-01-25T00:48:46;6.90;91.90
44431;DHT22;30135;47.866;-4.222;2023-01-25T00:51:18;6.90;91.90
44431;DHT22;30135;47.866;-4.222;2023-01-25T00:53:52;7.00;92.00
44431;DHT22;30135;47.866;-4.222;2023-01-25T00:56:27;6.90;91.90
44431;DHT22;30135;47.866;-4.222;2023-01-25T00:58:56;7.00;91.90
44431;DHT22;30135;47.866;-4.222;2023-01-25T01:01:25;7.00;91.90
44431;DHT22;30135;47.866;-4.222;2023-01-25T01:03:53;7.00;91.90
44431;DHT22;30135;47.866;-4.222;2023-01-25T01:06:23;7.00;91.90
44431;DHT22;30135;47.866;-4.222;2023-01-25T01:08:58;7.00;91.90
44431;DHT22;30135;47.866;-4.222;2023-01-25T01:11:28;7.00;92.00
44431;DHT22;30135;47.866;-4.222;2023-01-25T01:13:58;7.00;92.00
44431;DHT22;30135;47.866;-4.222;2023-01-25T01:16:26;7.00;92.00
44431;DHT22;30135;47.866;-4.222;2023-01-25T01:18:56;7.00;91.90
44431;DHT22;30135;47.866;-4.222;2023-01-25T01:21:25;7.00;92.00
44431;DHT22;30135;47.866;-4.222;2023-01-25T01:23:55;7.00;92.00
44431;DHT22;30135;47.866;-4.222;2023-01-25T01:26:26;7.00;92.00
44431;DHT22;30135;47.866;-4.222;2023-01-25T01:28:54;7.00;91.90
44431;DHT22;30135;47.866;-4.222;2023-01-25T01:31:23;7.00;91.90
44431;DHT22;30135;47.866;-4.222;2023-01-25T01:33:56;7.00;91.90
44431;DHT22;30135;47.866;-4.222;2023-01-25T01:36:37;7.00;91.90
44431;DHT22;30135;47.866;-4.222;2023-01-25T01:39:08;7.00;91.90
44431;DHT22;30135;47.866;-4.222;2023-01-25T01:41:40;7.00;91.90
44431;DHT22;30135;47.866;-4.222;2023-01-25T01:44:17;7.00;91.90
44431;DHT22;30135;47.866;-4.222;2023-01-25T01:46:59;7.00;91.90
44431;DHT22;30135;47.866;-4.222;2023-01-25T01:49:51;7.00;91.90
44431;DHT22;30135;47.866;-4.222;2023-01-25T01:52:32;7.00;91.90
44431;DHT22;30135;47.866;-4.222;2023-01-25T01:57:42;7.00;91.90
44431;DHT22;30135;47.866;-4.222;2023-01-25T02:00:47;7.00;91.90
44431;DHT22;30135;47.866;-4.222;2023-01-25T02:03:18;7.00;91.90
44431;DHT22;30135;47.866;-4.222;2023-01-25T02:06:13;7.00;91.90
44431;DHT22;30135;47.866;-4.222;2023-01-25T02:08:43;7.00;91.80
44431;DHT22;30135;47.866;-4.222;2023-01-25T02:11:12;7.00;91.90
44431;DHT22;30135;47.866;-4.222;2023-01-25T02:13:48;7.00;91.90
44431;DHT22;30135;47.866;-4.222;2023-01-25T02:16:21;7.10;91.90
44431;DHT22;30135;47.866;-4.222;2023-01-25T02:18:51;7.00;91.80
44431;DHT22;30135;47.866;-4.222;2023-01-25T02:21:43;7.00;92.20
44431;DHT22;30135;47.866;-4.222;2023-01-25T02:24:22;7.00;91.90
44431;DHT22;30135;47.866;-4.222;2023-01-25T02:26:54;7.00;91.90
44431;DHT22;30135;47.866;-4.222;2023-01-25T02:29:28;7.00;91.90
44431;DHT22;30135;47.866;-4.222;2023-01-25T02:32:07;7.00;91.80
44431;DHT22;30135;47.866;-4.222;2023-01-25T02:34:42;7.00;91.80
44431;DHT22;30135;47.866;-4.222;2023-01-25T02:37:13;7.10;91.90
44431;DHT22;30135;47.866;-4.222;2023-01-25T02:39:46;7.00;91.80
44431;DHT22;30135;47.866;-4.222;2023-01-25T02:42:16;7.00;91.80
44431;DHT22;30135;47.866;-4.222;2023-01-25T02:44:48;7.10;91.80
44431;DHT22;30135;47.866;-4.222;2023-01-25T02:47:19;7.00;91.80
44431;DHT22;30135;47.866;-4.222;2023-01-25T02:49:49;7.00;91.80
44431;DHT22;30135;47.866;-4.222;2023-01-25T02:52:22;7.00;91.80
44431;DHT22;30135;47.866;-4.222;2023-01-25T02:54:55;7.10;91.80
44431;DHT22;30135;47.866;-4.222;2023-01-25T02:57:24;7.10;91.80
44431;DHT22;30135;47.866;-4.222;2023-01-25T02:59:53;7.00;91.80
44431;DHT22;30135;47.866;-4.222;2023-01-25T03:02:19;7.00;91.80
44431;DHT22;30135;47.866;-4.222;2023-01-25T03:04:47;7.10;91.80
44431;DHT22;30135;47.866;-4.222;2023-01-25T03:07:17;7.10;91.80
44431;DHT22;30135;47.866;-4.222;2023-01-25T03:09:48;7.00;91.70
44431;DHT22;30135;47.866;-4.222;2023-01-25T03:12:21;7.00;91.70
44431;DHT22;30135;47.866;-4.222;2023-01-25T03:14:59;7.00;91.70
44431;DHT22;30135;47.866;-4.222;2023-01-25T03:17:31;7.00;91.70
44431;DHT22;30135;47.866;-4.222;2023-01-25T03:20:00;7.00;91.60
44431;DHT22;30135;47.866;-4.222;2023-01-25T03:22:37;7.00;91.60
44431;DHT22;30135;47.866;-4.222;2023-01-25T03:25:10;7.00;91.50
44431;DHT22;30135;47.866;-4.222;2023-01-25T03:27:52;7.10;91.50
44431;DHT22;30135;47.866;-4.222;2023-01-25T03:30:21;7.10;91.50
44431;DHT22;30135;47.866;-4.222;2023-01-25T03:32:54;7.00;91.50
44431;DHT22;30135;47.866;-4.222;2023-01-25T03:35:52;7.00;91.50
44431;DHT22;30135;47.866;-4.222;2023-01-25T03:38:25;7.10;91.50
44431;DHT22;30135;47.866;-4.222;2023-01-25T03:40:52;7.00;91.40
44431;DHT22;30135;47.866;-4.222;2023-01-25T03:43:27;7.10;91.40
44431;DHT22;30135;47.866;-4.222;2023-01-25T03:46:08;7.00;91.40
44431;DHT22;30135;47.866;-4.222;2023-01-25T03:48:39;7.00;91.40
44431;DHT22;30135;47.866;-4.222;2023-01-25T03:51:08;7.00;91.40
44431;DHT22;30135;47.866;-4.222;2023-01-25T03:53:37;7.00;91.40
44431;DHT22;30135;47.866;-4.222;2023-01-25T03:56:10;7.00;91.30
44431;DHT22;30135;47.866;-4.222;2023-01-25T03:58:45;7.00;91.30
44431;DHT22;30135;47.866;-4.222;2023-01-25T04:01:18;7.00;91.30
44431;DHT22;30135;47.866;-4.222;2023-01-25T04:04:03;7.00;91.30
44431;DHT22;30135;47.866;-4.222;2023-01-25T04:06:40;7.00;91.40
44431;DHT22;30135;47.866;-4.222;2023-01-25T04:09:14;7.00;91.30
44431;DHT22;30135;47.866;-4.222;2023-01-25T04:11:50;7.00;91.30
44431;DHT22;30135;47.866;-4.222;2023-01-25T04:14:22;7.10;91.40
44431;DHT22;30135;47.866;-4.222;2023-01-25T04:16:58;7.00;91.30
44431;DHT22;30135;47.866;-4.222;2023-01-25T04:19:36;7.00;91.30
44431;DHT22;30135;47.866;-4.222;2023-01-25T04:22:30;7.00;91.30
44431;DHT22;30135;47.866;-4.222;2023-01-25T04:25:13;7.00;91.30
44431;DHT22;30135;47.866;-4.222;2023-01-25T04:27:50;7.00;91.30
44431;DHT22;30135;47.866;-4.222;2023-01-25T04:30:26;7.00;91.30
44431;DHT22;30135;47.866;-4.222;2023-01-25T04:33:11;7.00;91.30
44431;DHT22;30135;47.866;-4.222;2023-01-25T04:36:00;7.00;91.30
44431;DHT22;30135;47.866;-4.222;2023-01-25T04:38:30;7.00;91.70
44431;DHT22;30135;47.866;-4.222;2023-01-25T04:40:59;7.00;91.30
44431;DHT22;30135;47.866;-4.222;2023-01-25T04:43:34;7.00;91.30
44431;DHT22;30135;47.866;-4.222;2023-01-25T04:46:06;7.00;91.30
44431;DHT22;30135;47.866;-4.222;2023-01-25T04:48:35;7.00;91.30
44431;DHT22;30135;47.866;-4.222;2023-01-25T04:51:04;7.00;91.30
44431;DHT22;30135;47.866;-4.222;2023-01-25T04:53:34;7.00;91.30
44431;DHT22;30135;47.866;-4.222;2023-01-25T04:56:08;7.00;91.30
44431;DHT22;30135;47.866;-4.222;2023-01-25T04:58:41;7.00;91.30
44431;DHT22;30135;47.866;-4.222;2023-01-25T05:01:13;7.00;91.20
44431;DHT22;30135;47.866;-4.222;2023-01-25T05:03:46;7.00;91.20
44431;DHT22;30135;47.866;-4.222;2023-01-25T05:06:17;7.00;91.20
44431;DHT22;30135;47.866;-4.222;2023-01-25T05:08:48;7.00;91.20
44431;DHT22;30135;47.866;-4.222;2023-01-25T05:11:35;7.00;91.20
44431;DHT22;30135;47.866;-4.222;2023-01-25T05:14:13;7.00;91.10
44431;DHT22;30135;47.866;-4.222;2023-01-25T05:17:00;7.00;91.10
44431;DHT22;30135;47.866;-4.222;2023-01-25T05:20:19;6.90;91.00
44431;DHT22;30135;47.866;-4.222;2023-01-25T05:23:07;6.90;90.90
44431;DHT22;30135;47.866;-4.222;2023-01-25T05:25:45;6.90;90.90
44431;DHT22;30135;47.866;-4.222;2023-01-25T05:28:40;6.90;90.90
44431;DHT22;30135;47.866;-4.222;2023-01-25T05:31:43;6.90;90.90
44431;DHT22;30135;47.866;-4.222;2023-01-25T05:34:26;6.90;90.90
44431;DHT22;30135;47.866;-4.222;2023-01-25T05:36:58;6.90;90.90
44431;DHT22;30135;47.866;-4.222;2023-01-25T05:39:39;6.90;90.90
44431;DHT22;30135;47.866;-4.222;2023-01-25T05:42:18;6.90;90.80
44431;DHT22;30135;47.866;-4.222;2023-01-25T05:44:47;6.90;90.80
44431;DHT22;30135;47.866;-4.222;2023-01-25T05:47:18;6.90;90.80
44431;DHT22;30135;47.866;-4.222;2023-01-25T05:49:53;6.90;90.80
44431;DHT22;30135;47.866;-4.222;2023-01-25T05:52:26;6.90;90.80
44431;DHT22;30135;47.866;-4.222;2023-01-25T05:55:02;6.90;90.80
44431;DHT22;30135;47.866;-4.222;2023-01-25T05:57:37;6.90;90.70
44431;DHT22;30135;47.866;-4.222;2023-01-25T06:00:12;6.90;90.60
44431;DHT22;30135;47.866;-4.222;2023-01-25T06:02:52;6.90;90.60
44431;DHT22;30135;47.866;-4.222;2023-01-25T06:05:41;6.80;90.60
44431;DHT22;30135;47.866;-4.222;2023-01-25T06:08:16;6.80;90.50
44431;DHT22;30135;47.866;-4.222;2023-01-25T06:10:57;6.80;90.50
44431;DHT22;30135;47.866;-4.222;2023-01-25T06:13:38;6.80;90.40
44431;DHT22;30135;47.866;-4.222;2023-01-25T06:16:12;6.80;90.50
44431;DHT22;30135;47.866;-4.222;2023-01-25T06:18:48;6.80;90.40
44431;DHT22;30135;47.866;-4.222;2023-01-25T06:21:18;6.80;90.40
44431;DHT22;30135;47.866;-4.222;2023-01-25T06:23:50;6.80;90.40
44431;DHT22;30135;47.866;-4.222;2023-01-25T06:26:43;6.80;90.30
44431;DHT22;30135;47.866;-4.222;2023-01-25T06:29:17;6.80;90.30
44431;DHT22;30135;47.866;-4.222;2023-01-25T06:31:46;6.80;90.30
44431;DHT22;30135;47.866;-4.222;2023-01-25T06:34:22;6.80;90.30
44431;DHT22;30135;47.866;-4.222;2023-01-25T06:36:52;6.80;90.10
44431;DHT22;30135;47.866;-4.222;2023-01-25T06:39:26;6.80;90.20
44431;DHT22;30135;47.866;-4.222;2023-01-25T06:41:56;6.80;90.10
44431;DHT22;30135;47.866;-4.222;2023-01-25T06:44:25;6.70;90.10
44431;DHT22;30135;47.866;-4.222;2023-01-25T06:46:57;6.70;90.10
44431;DHT22;30135;47.866;-4.222;2023-01-25T06:49:52;6.70;90.10
44431;DHT22;30135;47.866;-4.222;2023-01-25T06:52:38;6.70;90.10
44431;DHT22;30135;47.866;-4.222;2023-01-25T06:55:07;6.70;90.10
44431;DHT22;30135;47.866;-4.222;2023-01-25T06:57:39;6.70;90.10
44431;DHT22;30135;47.866;-4.222;2023-01-25T07:00:07;6.70;90.10
44431;DHT22;30135;47.866;-4.222;2023-01-25T07:02:38;6.70;90.00
44431;DHT22;30135;47.866;-4.222;2023-01-25T07:05:09;6.70;90.00
44431;DHT22;30135;47.866;-4.222;2023-01-25T07:07:39;6.70;90.00
44431;DHT22;30135;47.866;-4.222;2023-01-25T07:10:13;6.70;90.00
44431;DHT22;30135;47.866;-4.222;2023-01-25T07:12:44;6.70;90.00
44431;DHT22;30135;47.866;-4.222;2023-01-25T07:15:15;6.70;90.00
44431;DHT22;30135;47.866;-4.222;2023-01-25T07:17:48;6.70;90.00
44431;DHT22;30135;47.866;-4.222;2023-01-25T07:20:23;6.70;89.90
44431;DHT22;30135;47.866;-4.222;2023-01-25T07:22:50;6.70;89.90
44431;DHT22;30135;47.866;-4.222;2023-01-25T07:25:19;6.70;89.80
44431;DHT22;30135;47.866;-4.222;2023-01-25T07:27:45;6.60;89.70
44431;DHT22;30135;47.866;-4.222;2023-01-25T07:30:17;6.60;89.60
44431;DHT22;30135;47.866;-4.222;2023-01-25T07:32:47;6.60;89.70
44431;DHT22;30135;47.866;-4.222;2023-01-25T07:35:15;6.60;89.70
44431;DHT22;30135;47.866;-4.222;2023-01-25T07:37:47;6.60;89.60
44431;DHT22;30135;47.866;-4.222;2023-01-25T07:40:15;6.60;89.60
44431;DHT22;30135;47.866;-4.222;2023-01-25T07:42:45;6.60;89.70
44431;DHT22;30135;47.866;-4.222;2023-01-25T07:45:17;6.60;89.60
44431;DHT22;30135;47.866;-4.222;2023-01-25T07:48:22;6.60;89.50
44431;DHT22;30135;47.866;-4.222;2023-01-25T07:50:56;6.60;89.50
44431;DHT22;30135;47.866;-4.222;2023-01-25T07:53:43;6.60;89.50
44431;DHT22;30135;47.866;-4.222;2023-01-25T07:56:15;6.60;89.40
44431;DHT22;30135;47.866;-4.222;2023-01-25T07:58:45;6.60;89.40
44431;DHT22;30135;47.866;-4.222;2023-01-25T08:01:19;6.60;89.40
44431;DHT22;30135;47.866;-4.222;2023-01-25T08:03:50;6.60;89.40
44431;DHT22;30135;47.866;-4.222;2023-01-25T08:06:32;6.60;89.30
44431;DHT22;30135;47.866;-4.222;2023-01-25T08:09:12;6.60;89.20
44431;DHT22;30135;47.866;-4.222;2023-01-25T08:11:47;6.60;89.10
44431;DHT22;30135;47.866;-4.222;2023-01-25T08:14:20;6.60;89.20
44431;DHT22;30135;47.866;-4.222;2023-01-25T08:16:47;6.60;89.10
44431;DHT22;30135;47.866;-4.222;2023-01-25T08:19:18;6.60;89.90
44431;DHT22;30135;47.866;-4.222;2023-01-25T08:21:53;6.60;89.10
44431;DHT22;30135;47.866;-4.222;2023-01-25T08:24:28;6.60;89.10
44431;DHT22;30135;47.866;-4.222;2023-01-25T08:27:00;6.60;89.10
44431;DHT22;30135;47.866;-4.222;2023-01-25T08:29:36;6.60;89.10
44431;DHT22;30135;47.866;-4.222;2023-01-25T08:32:08;6.60;89.00
44431;DHT22;30135;47.866;-4.222;2023-01-25T08:34:38;6.60;89.20
44431;DHT22;30135;47.866;-4.222;2023-01-25T08:37:06;6.60;89.10
44431;DHT22;30135;47.866;-4.222;2023-01-25T08:39:36;6.60;89.10
44431;DHT22;30135;47.866;-4.222;2023-01-25T08:42:05;6.60;89.20
44431;DHT22;30135;47.866;-4.222;2023-01-25T08:44:31;6.60;89.10
44431;DHT22;30135;47.866;-4.222;2023-01-25T08:47:01;6.60;89.10
44431;DHT22;30135;47.866;-4.222;2023-01-25T08:49:33;6.60;89.10
44431;DHT22;30135;47.866;-4.222;2023-01-25T08:51:59;6.60;89.10
44431;DHT22;30135;47.866;-4.222;2023-01-25T08:54:35;6.60;89.10
44431;DHT22;30135;47.866;-4.222;2023-01-25T08:57:03;6.60;89.00
44431;DHT22;30135;47.866;-4.222;2023-01-25T08:59:34;6.60;88.90
44431;DHT22;30135;47.866;-4.222;2023-01-25T09:02:04;6.60;88.90
44431;DHT22;30135;47.866;-4.222;2023-01-25T09:04:40;6.60;89.00
44431;DHT22;30135;47.866;-4.222;2023-01-25T09:07:10;6.60;89.10
44431;DHT22;30135;47.866;-4.222;2023-01-25T09:09:45;6.60;89.10
44431;DHT22;30135;47.866;-4.222;2023-01-25T09:12:15;6.60;89.00
44431;DHT22;30135;47.866;-4.222;2023-01-25T09:14:46;6.70;89.00
44431;DHT22;30135;47.866;-4.222;2023-01-25T09:17:19;6.70;89.00
44431;DHT22;30135;47.866;-4.222;2023-01-25T09:19:49;6.70;88.90
44431;DHT22;30135;47.866;-4.222;2023-01-25T09:22:17;6.70;88.90
44431;DHT22;30135;47.866;-4.222;2023-01-25T09:24:54;6.70;89.00
44431;DHT22;30135;47.866;-4.222;2023-01-25T09:27:22;6.70;88.90
44431;DHT22;30135;47.866;-4.222;2023-01-25T09:29:52;6.70;88.80
44431;DHT22;30135;47.866;-4.222;2023-01-25T09:32:22;6.70;88.90
44431;DHT22;30135;47.866;-4.222;2023-01-25T09:34:50;6.70;88.80
44431;DHT22;30135;47.866;-4.222;2023-01-25T09:37:18;6.70;88.90
44431;DHT22;30135;47.866;-4.222;2023-01-25T09:39:49;6.70;89.00
44431;DHT22;30135;47.866;-4.222;2023-01-25T09:45:34;6.70;89.70
44431;DHT22;30135;47.866;-4.222;2023-01-25T09:51:21;6.70;88.90
44431;DHT22;30135;47.866;-4.222;2023-01-25T09:53:55;6.70;88.90
44431;DHT22;30135;47.866;-4.222;2023-01-25T09:56:29;6.70;88.90
44431;DHT22;30135;47.866;-4.222;2023-01-25T09:59:11;6.70;88.80
44431;DHT22;30135;47.866;-4.222;2023-01-25T10:04:33;6.80;88.90
44431;DHT22;30135;47.866;-4.222;2023-01-25T10:07:21;6.80;88.90
44431;DHT22;30135;47.866;-4.222;2023-01-25T10:10:02;6.80;89.00
44431;DHT22;30135;47.866;-4.222;2023-01-25T10:12:37;6.80;88.90
44431;DHT22;30135;47.866;-4.222;2023-01-25T10:15:21;6.80;89.80
44431;DHT22;30135;47.866;-4.222;2023-01-25T10:18:17;6.80;89.10
44431;DHT22;30135;47.866;-4.222;2023-01-25T10:21:17;6.80;88.90
44431;DHT22;30135;47.866;-4.222;2023-01-25T10:24:25;6.80;89.00
44431;DHT22;30135;47.866;-4.222;2023-01-25T10:33:57;6.90;89.10
44431;DHT22;30135;47.866;-4.222;2023-01-25T10:36:47;6.90;88.90
44431;DHT22;30135;47.866;-4.222;2023-01-25T10:39:32;6.90;89.00
44431;DHT22;30135;47.866;-4.222;2023-01-25T10:42:08;6.90;89.10
44431;DHT22;30135;47.866;-4.222;2023-01-25T10:44:43;6.90;89.10
44431;DHT22;30135;47.866;-4.222;2023-01-25T10:47:32;6.90;89.10
44431;DHT22;30135;47.866;-4.222;2023-01-25T10:50:05;6.90;89.00
44431;DHT22;30135;47.866;-4.222;2023-01-25T10:52:37;7.00;89.20
44431;DHT22;30135;47.866;-4.222;2023-01-25T10:55:20;7.00;89.30
44431;DHT22;30135;47.866;-4.222;2023-01-25T10:57:55;7.00;89.20
44431;DHT22;30135;47.866;-4.222;2023-01-25T11:00:36;7.00;89.00
44431;DHT22;30135;47.866;-4.222;2023-01-25T11:03:05;7.10;89.20
44431;DHT22;30135;47.866;-4.222;2023-01-25T11:05:38;7.00;89.10
44431;DHT22;30135;47.866;-4.222;2023-01-25T11:08:24;7.10;89.20
44431;DHT22;30135;47.866;-4.222;2023-01-25T11:14:17;7.10;89.30
44431;DHT22;30135;47.866;-4.222;2023-01-25T11:16:47;7.10;89.50
44431;DHT22;30135;47.866;-4.222;2023-01-25T11:19:37;7.10;89.20
44431;DHT22;30135;47.866;-4.222;2023-01-25T11:22:22;7.20;89.30
44431;DHT22;30135;47.866;-4.222;2023-01-25T11:24:56;7.20;89.20
44431;DHT22;30135;47.866;-4.222;2023-01-25T11:27:28;7.20;89.20
44431;DHT22;30135;47.866;-4.222;2023-01-25T11:30:15;7.20;89.10
44431;DHT22;30135;47.866;-4.222;2023-01-25T11:32:49;7.20;89.10
44431;DHT22;30135;47.866;-4.222;2023-01-25T11:35:33;7.30;89.30
44431;DHT22;30135;47.866;-4.222;2023-01-25T11:38:35;7.30;89.20
44431;DHT22;30135;47.866;-4.222;2023-01-25T11:49:40;7.40;88.80
44431;DHT22;30135;47.866;-4.222;2023-01-25T11:54:50;7.40;88.90
44431;DHT22;30135;47.866;-4.222;2023-01-25T12:03:54;7.50;89.10
44431;DHT22;30135;47.866;-4.222;2023-01-25T12:06:14;7.50;88.80
44431;DHT22;30135;47.866;-4.222;2023-01-25T12:09:02;7.50;88.80
44431;DHT22;30135;47.866;-4.222;2023-01-25T12:18:10;7.60;88.90
44431;DHT22;30135;47.866;-4.222;2023-01-25T12:21:31;7.60;88.80
44431;DHT22;30135;47.866;-4.222;2023-01-25T12:30:31;7.70;89.10
44431;DHT22;30135;47.866;-4.222;2023-01-25T12:33:42;7.70;89.10
44431;DHT22;30135;47.866;-4.222;2023-01-25T12:36:16;7.70;89.10
44431;DHT22;30135;47.866;-4.222;2023-01-25T12:39:03;7.70;89.20
44431;DHT22;30135;47.866;-4.222;2023-01-25T12:42:01;7.70;89.00
44431;DHT22;30135;47.866;-4.222;2023-01-25T12:44:41;7.80;89.10
44431;DHT22;30135;47.866;-4.222;2023-01-25T12:48:43;7.80;89.20
44431;DHT22;30135;47.866;-4.222;2023-01-25T12:51:03;7.80;89.10
44431;DHT22;30135;47.866;-4.222;2023-01-25T12:53:47;7.80;89.10
44431;DHT22;30135;47.866;-4.222;2023-01-25T12:56:45;7.90;89.10
44431;DHT22;30135;47.866;-4.222;2023-01-25T12:59:46;7.90;88.90
44431;DHT22;30135;47.866;-4.222;2023-01-25T13:03:06;7.90;88.90
44431;DHT22;30135;47.866;-4.222;2023-01-25T13:09:01;7.90;88.50
44431;DHT22;30135;47.866;-4.222;2023-01-25T13:12:10;8.00;88.80
44431;DHT22;30135;47.866;-4.222;2023-01-25T13:14:39;8.00;89.00
44431;DHT22;30135;47.866;-4.222;2023-01-25T13:17:22;8.00;88.90
44431;DHT22;30135;47.866;-4.222;2023-01-25T13:19:51;8.00;88.80
44431;DHT22;30135;47.866;-4.222;2023-01-25T13:25:25;8.10;88.70
44431;DHT22;30135;47.866;-4.222;2023-01-25T13:37:24;8.20;88.60
44431;DHT22;30135;47.866;-4.222;2023-01-25T13:40:26;8.20;88.60
44431;DHT22;30135;47.866;-4.222;2023-01-25T13:43:18;8.20;88.60
44431;DHT22;30135;47.866;-4.222;2023-01-25T13:45:50;8.30;88.50
44431;DHT22;30135;47.866;-4.222;2023-01-25T13:48:27;8.30;88.40
44431;DHT22;30135;47.866;-4.222;2023-01-25T13:51:13;8.30;88.50
44431;DHT22;30135;47.866;-4.222;2023-01-25T13:53:55;8.30;88.30
44431;DHT22;30135;47.866;-4.222;2023-01-25T13:56:31;8.30;88.20
44431;DHT22;30135;47.866;-4.222;2023-01-25T13:59:21;8.30;88.20
44431;DHT22;30135;47.866;-4.222;2023-01-25T14:01:50;8.40;88.10
44431;DHT22;30135;47.866;-4.222;2023-01-25T14:04:20;8.40;88.30
44431;DHT22;30135;47.866;-4.222;2023-01-25T14:07:00;8.40;88.00
44431;DHT22;30135;47.866;-4.222;2023-01-25T14:09:36;8.40;87.90
44431;DHT22;30135;47.866;-4.222;2023-01-25T14:15:28;8.40;87.80
44431;DHT22;30135;47.866;-4.222;2023-01-25T14:18:15;8.40;87.70
44431;DHT22;30135;47.866;-4.222;2023-01-25T14:20:48;8.40;87.80
44431;DHT22;30135;47.866;-4.222;2023-01-25T14:23:24;8.40;87.80
44431;DHT22;30135;47.866;-4.222;2023-01-25T14:26:00;8.40;87.80
44431;DHT22;30135;47.866;-4.222;2023-01-25T14:28:28;8.50;88.00
44431;DHT22;30135;47.866;-4.222;2023-01-25T14:31:04;8.50;87.90
44431;DHT22;30135;47.866;-4.222;2023-01-25T14:33:44;8.50;88.00
44431;DHT22;30135;47.866;-4.222;2023-01-25T14:36:25;8.50;87.90
44431;DHT22;30135;47.866;-4.222;2023-01-25T14:39:19;8.50;88.00
44431;DHT22;30135;47.866;-4.222;2023-01-25T14:42:07;8.50;88.00
44431;DHT22;30135;47.866;-4.222;2023-01-25T14:44:34;8.50;88.00
44431;DHT22;30135;47.866;-4.222;2023-01-25T14:47:28;8.50;88.00
44431;DHT22;30135;47.866;-4.222;2023-01-25T14:50:33;8.50;87.90
44431;DHT22;30135;47.866;-4.222;2023-01-25T14:53:19;8.50;87.70
44431;DHT22;30135;47.866;-4.222;2023-01-25T14:56:03;8.50;87.80
44431;DHT22;30135;47.866;-4.222;2023-01-25T14:58:40;8.50;87.60
44431;DHT22;30135;47.866;-4.222;2023-01-25T15:02:01;8.50;87.40
44431;DHT22;30135;47.866;-4.222;2023-01-25T15:04:26;8.50;87.40
44431;DHT22;30135;47.866;-4.222;2023-01-25T15:07:29;8.50;87.40
44431;DHT22;30135;47.866;-4.222;2023-01-25T15:10:23;8.50;87.30
44431;DHT22;30135;47.866;-4.222;2023-01-25T15:16:05;8.50;86.80
44431;DHT22;30135;47.866;-4.222;2023-01-25T15:18:52;8.50;87.10
44431;DHT22;30135;47.866;-4.222;2023-01-25T15:21:39;8.50;87.30
44431;DHT22;30135;47.866;-4.222;2023-01-25T15:24:27;8.50;87.30
44431;DHT22;30135;47.866;-4.222;2023-01-25T15:27:14;8.50;87.40
44431;DHT22;30135;47.866;-4.222;2023-01-25T15:29:54;8.50;87.00
44431;DHT22;30135;47.866;-4.222;2023-01-25T15:32:34;8.50;86.80
44431;DHT22;30135;47.866;-4.222;2023-01-25T15:35:19;8.40;85.90
44431;DHT22;30135;47.866;-4.222;2023-01-25T15:37:57;8.40;86.80
44431;DHT22;30135;47.866;-4.222;2023-01-25T15:40:26;8.40;86.70
44431;DHT22;30135;47.866;-4.222;2023-01-25T15:42:53;8.40;86.80
44431;DHT22;30135;47.866;-4.222;2023-01-25T15:45:26;8.40;87.00
44431;DHT22;30135;47.866;-4.222;2023-01-25T15:48:03;8.40;86.70
44431;DHT22;30135;47.866;-4.222;2023-01-25T15:50:42;8.40;86.70
44431;DHT22;30135;47.866;-4.222;2023-01-25T15:53:22;8.40;86.60
44431;DHT22;30135;47.866;-4.222;2023-01-25T15:56:04;8.40;86.60
44431;DHT22;30135;47.866;-4.222;2023-01-25T15:58:39;8.40;86.80
44431;DHT22;30135;47.866;-4.222;2023-01-25T16:01:12;8.50;86.90
44431;DHT22;30135;47.866;-4.222;2023-01-25T16:03:40;8.50;86.90
44431;DHT22;30135;47.866;-4.222;2023-01-25T16:09:15;8.50;86.30
44431;DHT22;30135;47.866;-4.222;2023-01-25T16:12:01;8.40;86.30
44431;DHT22;30135;47.866;-4.222;2023-01-25T16:14:35;8.50;86.40
44431;DHT22;30135;47.866;-4.222;2023-01-25T16:17:19;8.50;86.30
44431;DHT22;30135;47.866;-4.222;2023-01-25T16:19:53;8.50;86.30
44431;DHT22;30135;47.866;-4.222;2023-01-25T16:22:21;8.50;86.20
44431;DHT22;30135;47.866;-4.222;2023-01-25T16:24:55;8.40;86.20
44431;DHT22;30135;47.866;-4.222;2023-01-25T16:27:27;8.50;86.10
44431;DHT22;30135;47.866;-4.222;2023-01-25T16:30:06;8.50;86.00
44431;DHT22;30135;47.866;-4.222;2023-01-25T16:32:46;8.40;85.90
44431;DHT22;30135;47.866;-4.222;2023-01-25T16:35:21;8.40;85.70
44431;DHT22;30135;47.866;-4.222;2023-01-25T16:38:10;8.40;85.80
44431;DHT22;30135;47.866;-4.222;2023-01-25T16:40:55;8.40;85.90
44431;DHT22;30135;47.866;-4.222;2023-01-25T16:43:26;8.40;85.90
44431;DHT22;30135;47.866;-4.222;2023-01-25T16:45:56;8.40;85.90
44431;DHT22;30135;47.866;-4.222;2023-01-25T16:48:23;8.40;85.90
44431;DHT22;30135;47.866;-4.222;2023-01-25T16:50:50;8.30;85.80
44431;DHT22;30135;47.866;-4.222;2023-01-25T16:53:18;8.30;85.80
44431;DHT22;30135;47.866;-4.222;2023-01-25T16:55:45;8.30;85.70
44431;DHT22;30135;47.866;-4.222;2023-01-25T16:58:12;8.30;85.70
44431;DHT22;30135;47.866;-4.222;2023-01-25T17:00:40;8.20;85.70
44431;DHT22;30135;47.866;-4.222;2023-01-25T17:03:06;8.20;85.80
44431;DHT22;30135;47.866;-4.222;2023-01-25T17:05:39;8.20;85.70
44431;DHT22;30135;47.866;-4.222;2023-01-25T17:08:05;8.10;85.60
44431;DHT22;30135;47.866;-4.222;2023-01-25T17:10:34;8.10;85.60
44431;DHT22;30135;47.866;-4.222;2023-01-25T17:13:07;8.00;85.60
44431;DHT22;30135;47.866;-4.222;2023-01-25T17:15:40;8.00;85.70
44431;DHT22;30135;47.866;-4.222;2023-01-25T17:18:13;7.90;85.60
44431;DHT22;30135;47.866;-4.222;2023-01-25T17:20:41;7.90;85.70
44431;DHT22;30135;47.866;-4.222;2023-01-25T17:23:40;7.90;85.90
44431;DHT22;30135;47.866;-4.222;2023-01-25T17:26:20;7.90;86.00
44431;DHT22;30135;47.866;-4.222;2023-01-25T17:29:00;7.80;86.00
44431;DHT22;30135;47.866;-4.222;2023-01-25T17:31:37;7.80;86.00
44431;DHT22;30135;47.866;-4.222;2023-01-25T17:34:09;7.70;85.80
44431;DHT22;30135;47.866;-4.222;2023-01-25T17:36:45;7.70;85.90
44431;DHT22;30135;47.866;-4.222;2023-01-25T17:39:18;7.70;86.00
44431;DHT22;30135;47.866;-4.222;2023-01-25T17:41:47;7.70;86.00
44431;DHT22;30135;47.866;-4.222;2023-01-25T17:44:20;7.60;86.00
44431;DHT22;30135;47.866;-4.222;2023-01-25T17:47:11;7.60;86.10
44431;DHT22;30135;47.866;-4.222;2023-01-25T17:49:41;7.60;86.20